Fisktrans — LIAB — position and weather

sailwx.info

Track history (hours):
 
Tides and Currents Weather Stations Pressure Air Temp Water Temp Dewpoint Dewpoint Depression Visibility Wind Speed Wind Dir Waves Ship Positions

Fisktrans

Last reported at 2015-Feb-01 10:25 UTC. Time now 2015-Feb-01 18:10 UTC.
Position N 69°35' E 018°51'.

Length 58 m.

Type: Cargo ship. MMSI: 258034000.

Date/timePositionNaut miles runAvg speedWind from/ knotsBaromVisibWave heightAir tempDewpointWater temp
2015-Feb-01 10:25N 69°35' E 018°51'5 5.3
2015-Feb-01 09:33N 69°39' E 018°58'0 0.0
2015-Feb-01 08:33N 69°39' E 018°58'0 0.0
2015-Feb-01 07:33N 69°39' E 018°58'0 0.0
2015-Feb-01 06:33N 69°39' E 018°58'0 0.0
2015-Feb-01 05:33N 69°39' E 018°58'0 0.0
2015-Feb-01 04:33N 69°39' E 018°58'0 0.0
2015-Feb-01 03:33N 69°39' E 018°58'0 0.0
2015-Feb-01 02:34N 69°39' E 018°58'0 0.0
2015-Feb-01 01:33N 69°39' E 018°58'0 0.0
2015-Feb-01 00:33N 69°39' E 018°58'0 0.0
2015-Jan-31 23:33N 69°39' E 018°58'0 0.0
2015-Jan-31 22:33N 69°39' E 018°58'0 0.0
2015-Jan-31 21:33N 69°39' E 018°58'0 0.0
2015-Jan-31 20:33N 69°39' E 018°58'0 0.0
2015-Jan-31 19:33N 69°39' E 018°58'0 0.0
2015-Jan-31 18:33N 69°39' E 018°58'0 0.0
2015-Jan-31 17:33N 69°39' E 018°58'0 0.0
2015-Jan-31 16:33N 69°39' E 018°58'0 0.0
2015-Jan-31 15:33N 69°39' E 018°58'0 0.0
2015-Jan-31 14:33N 69°39' E 018°58'0 0.0
2015-Jan-31 13:33N 69°39' E 018°58'0 0.0
2015-Jan-31 12:33N 69°39' E 018°58'0 0.0
2015-Jan-31 11:33N 69°39' E 018°58'0 0.0
2015-Jan-31 10:33N 69°39' E 018°58'1 1.2
2015-Jan-31 09:33N 69°38' E 018°57'2 1.9
2015-Jan-31 08:33N 69°36' E 018°53'156 9.2
2015-Jan-30 15:28N 67°33' E 014°30'9 9.8
2015-Jan-30 14:33N 67°24' E 014°26'7 6.8
2015-Jan-30 13:33N 67°17' E 014°23'0 0.0
2015-Jan-30 12:34N 67°17' E 014°23'0 0.0
2015-Jan-30 11:33N 67°17' E 014°23'0 0.0
2015-Jan-30 10:33N 67°17' E 014°23'0 0.0
2015-Jan-30 09:33N 67°17' E 014°23'0 0.0
2015-Jan-30 08:33N 67°17' E 014°23'0 0.0
2015-Jan-30 07:33N 67°17' E 014°23'0 0.0
2015-Jan-30 06:33N 67°17' E 014°23'0 0.0
2015-Jan-30 05:33N 67°17' E 014°23'0 0.0
2015-Jan-30 04:33N 67°17' E 014°23'0 0.3
2015-Jan-30 03:33N 67°17' E 014°22'8 8.1
2015-Jan-30 02:33N 67°25' E 014°27'163 4.5
2015-Jan-28 14:10N 69°36' E 018°52'2 4.1
2015-Jan-28 13:33N 69°38' E 018°57'0 0.0
2015-Jan-28 12:33N 69°38' E 018°57'0 0.0
2015-Jan-28 11:32N 69°38' E 018°57'0 0.0
2015-Jan-28 10:33N 69°38' E 018°57'0 0.0
2015-Jan-28 09:33N 69°38' E 018°57'0 0.0
2015-Jan-28 08:33N 69°38' E 018°57'0 0.0
2015-Jan-28 07:29N 69°38' E 018°57'0 0.0
2015-Jan-28 06:33N 69°38' E 018°57'0 0.0
2015-Jan-28 05:33N 69°38' E 018°57'0 0.0
2015-Jan-28 04:33N 69°38' E 018°57'0 0.0
2015-Jan-28 03:33N 69°38' E 018°57'0 0.0
2015-Jan-28 02:33N 69°38' E 018°57'0 0.0
2015-Jan-28 01:33N 69°38' E 018°57'0 0.0
2015-Jan-28 00:33N 69°38' E 018°57'2 2.1
2015-Jan-27 23:31N 69°36' E 018°53'2 2.2
2015-Jan-27 22:33N 69°38' E 018°57'0 0.0
2015-Jan-27 21:33N 69°38' E 018°57'0 0.0
2015-Jan-27 20:33N 69°38' E 018°57'2 2.3
2015-Jan-27 19:33N 69°36' E 018°53'157 9.2
2015-Jan-27 02:31N 67°32' E 014°30'9 9.8
2015-Jan-27 01:33N 67°22' E 014°26'5 5.2
2015-Jan-27 00:33N 67°17' E 014°23'0 0.0
2015-Jan-26 23:33N 67°17' E 014°23'0 0.0
2015-Jan-26 22:33N 67°17' E 014°23'0 0.0
2015-Jan-26 21:33N 67°17' E 014°23'0 0.0
2015-Jan-26 20:33N 67°17' E 014°23'0 0.0
2015-Jan-26 19:33N 67°17' E 014°23'0 0.0
2015-Jan-26 18:33N 67°17' E 014°23'0 0.0
2015-Jan-26 17:33N 67°17' E 014°23'0 0.0
2015-Jan-26 16:33N 67°17' E 014°23'0 0.0
2015-Jan-26 15:34N 67°17' E 014°23'0 0.0
2015-Jan-26 14:33N 67°17' E 014°23'0 0.0
2015-Jan-26 13:33N 67°17' E 014°23'0 0.0
2015-Jan-26 12:33N 67°17' E 014°23'0 0.0
2015-Jan-26 11:33N 67°17' E 014°23'0 0.0
2015-Jan-26 10:33N 67°17' E 014°23'0 0.0
2015-Jan-26 09:33N 67°17' E 014°23'0 0.0
2015-Jan-26 08:33N 67°17' E 014°23'4 3.6
2015-Jan-26 07:33N 67°21' E 014°24'9 9.4
2015-Jan-26 06:33N 67°30' E 014°29'  
2015-Jan-23 00:33N 67°35' E 014°30'10 9.8
2015-Jan-22 23:34N 67°26' E 014°27'8 8.5
2015-Jan-22 22:33N 67°17' E 014°23'0 0.0
2015-Jan-22 21:33N 67°17' E 014°23'0 0.0
2015-Jan-22 20:33N 67°17' E 014°23'0 0.0
2015-Jan-22 19:33N 67°17' E 014°23'0 0.0
2015-Jan-22 18:33N 67°17' E 014°23'0 0.0
2015-Jan-22 17:33N 67°17' E 014°23'0 0.0
2015-Jan-22 16:33N 67°17' E 014°23'0 0.0
2015-Jan-22 15:33N 67°17' E 014°23'0 0.0
2015-Jan-22 14:33N 67°17' E 014°23'0 0.0
2015-Jan-22 13:34N 67°17' E 014°23'12 9.2
2015-Jan-22 12:14N 67°20' E 013°52'  
Track history (hours):
 
Tides and Currents Weather Stations Pressure Air Temp Water Temp Dewpoint Dewpoint Depression Visibility Wind Speed Wind Dir Waves Ship Positions

Fisktrans

Last reported at 2015-Feb-01 10:25 UTC. Time now 2015-Feb-01 18:10 UTC.
Position N 69°35' E 018°51'.

Length 58 m.

Type: Cargo ship. MMSI: 258034000.

Date/timePositionNaut miles runAvg speedWind from/ knotsBaromVisibWave heightAir tempDewpointWater temp
2015-Feb-01 10:25N 69°35' E 018°51'5 5.3
2015-Feb-01 09:33N 69°39' E 018°58'0 0.0
2015-Feb-01 08:33N 69°39' E 018°58'0 0.0
2015-Feb-01 07:33N 69°39' E 018°58'0 0.0
2015-Feb-01 06:33N 69°39' E 018°58'0 0.0
2015-Feb-01 05:33N 69°39' E 018°58'0 0.0
2015-Feb-01 04:33N 69°39' E 018°58'0 0.0
2015-Feb-01 03:33N 69°39' E 018°58'0 0.0
2015-Feb-01 02:34N 69°39' E 018°58'0 0.0
2015-Feb-01 01:33N 69°39' E 018°58'0 0.0
2015-Feb-01 00:33N 69°39' E 018°58'0 0.0
2015-Jan-31 23:33N 69°39' E 018°58'0 0.0
2015-Jan-31 22:33N 69°39' E 018°58'0 0.0
2015-Jan-31 21:33N 69°39' E 018°58'0 0.0
2015-Jan-31 20:33N 69°39' E 018°58'0 0.0
2015-Jan-31 19:33N 69°39' E 018°58'0 0.0
2015-Jan-31 18:33N 69°39' E 018°58'0 0.0
2015-Jan-31 17:33N 69°39' E 018°58'0 0.0
2015-Jan-31 16:33N 69°39' E 018°58'0 0.0
2015-Jan-31 15:33N 69°39' E 018°58'0 0.0
2015-Jan-31 14:33N 69°39' E 018°58'0 0.0
2015-Jan-31 13:33N 69°39' E 018°58'0 0.0
2015-Jan-31 12:33N 69°39' E 018°58'0 0.0
2015-Jan-31 11:33N 69°39' E 018°58'0 0.0
2015-Jan-31 10:33N 69°39' E 018°58'1 1.2
2015-Jan-31 09:33N 69°38' E 018°57'2 1.9
2015-Jan-31 08:33N 69°36' E 018°53'156 9.2
2015-Jan-30 15:28N 67°33' E 014°30'9 9.8
2015-Jan-30 14:33N 67°24' E 014°26'7 6.8
2015-Jan-30 13:33N 67°17' E 014°23'0 0.0
2015-Jan-30 12:34N 67°17' E 014°23'0 0.0
2015-Jan-30 11:33N 67°17' E 014°23'0 0.0
2015-Jan-30 10:33N 67°17' E 014°23'0 0.0
2015-Jan-30 09:33N 67°17' E 014°23'0 0.0
2015-Jan-30 08:33N 67°17' E 014°23'0 0.0
2015-Jan-30 07:33N 67°17' E 014°23'0 0.0
2015-Jan-30 06:33N 67°17' E 014°23'0 0.0
2015-Jan-30 05:33N 67°17' E 014°23'0 0.0
2015-Jan-30 04:33N 67°17' E 014°23'0 0.3
2015-Jan-30 03:33N 67°17' E 014°22'8 8.1
2015-Jan-30 02:33N 67°25' E 014°27'163 4.5
2015-Jan-28 14:10N 69°36' E 018°52'2 4.1
2015-Jan-28 13:33N 69°38' E 018°57'0 0.0
2015-Jan-28 12:33N 69°38' E 018°57'0 0.0
2015-Jan-28 11:32N 69°38' E 018°57'0 0.0
2015-Jan-28 10:33N 69°38' E 018°57'0 0.0
2015-Jan-28 09:33N 69°38' E 018°57'0 0.0
2015-Jan-28 08:33N 69°38' E 018°57'0 0.0
2015-Jan-28 07:29N 69°38' E 018°57'0 0.0
2015-Jan-28 06:33N 69°38' E 018°57'0 0.0
2015-Jan-28 05:33N 69°38' E 018°57'0 0.0
2015-Jan-28 04:33N 69°38' E 018°57'0 0.0
2015-Jan-28 03:33N 69°38' E 018°57'0 0.0
2015-Jan-28 02:33N 69°38' E 018°57'0 0.0
2015-Jan-28 01:33N 69°38' E 018°57'0 0.0
2015-Jan-28 00:33N 69°38' E 018°57'2 2.1
2015-Jan-27 23:31N 69°36' E 018°53'2 2.2
2015-Jan-27 22:33N 69°38' E 018°57'0 0.0
2015-Jan-27 21:33N 69°38' E 018°57'0 0.0
2015-Jan-27 20:33N 69°38' E 018°57'2 2.3
2015-Jan-27 19:33N 69°36' E 018°53'157 9.2
2015-Jan-27 02:31N 67°32' E 014°30'9 9.8
2015-Jan-27 01:33N 67°22' E 014°26'5 5.2
2015-Jan-27 00:33N 67°17' E 014°23'0 0.0
2015-Jan-26 23:33N 67°17' E 014°23'0 0.0
2015-Jan-26 22:33N 67°17' E 014°23'0 0.0
2015-Jan-26 21:33N 67°17' E 014°23'0 0.0
2015-Jan-26 20:33N 67°17' E 014°23'0 0.0
2015-Jan-26 19:33N 67°17' E 014°23'0 0.0
2015-Jan-26 18:33N 67°17' E 014°23'0 0.0
2015-Jan-26 17:33N 67°17' E 014°23'0 0.0
2015-Jan-26 16:33N 67°17' E 014°23'0 0.0
2015-Jan-26 15:34N 67°17' E 014°23'0 0.0
2015-Jan-26 14:33N 67°17' E 014°23'0 0.0
2015-Jan-26 13:33N 67°17' E 014°23'0 0.0
2015-Jan-26 12:33N 67°17' E 014°23'0 0.0
2015-Jan-26 11:33N 67°17' E 014°23'0 0.0
2015-Jan-26 10:33N 67°17' E 014°23'0 0.0
2015-Jan-26 09:33N 67°17' E 014°23'0 0.0
2015-Jan-26 08:33N 67°17' E 014°23'4 3.6
2015-Jan-26 07:33N 67°21' E 014°24'9 9.4
2015-Jan-26 06:33N 67°30' E 014°29'  
2015-Jan-23 00:33N 67°35' E 014°30'10 9.8
2015-Jan-22 23:34N 67°26' E 014°27'8 8.5
2015-Jan-22 22:33N 67°17' E 014°23'0 0.0
2015-Jan-22 21:33N 67°17' E 014°23'0 0.0
2015-Jan-22 20:33N 67°17' E 014°23'0 0.0
2015-Jan-22 19:33N 67°17' E 014°23'0 0.0
2015-Jan-22 18:33N 67°17' E 014°23'0 0.0
2015-Jan-22 17:33N 67°17' E 014°23'0 0.0
2015-Jan-22 16:33N 67°17' E 014°23'0 0.0
2015-Jan-22 15:33N 67°17' E 014°23'0 0.0
2015-Jan-22 14:33N 67°17' E 014°23'0 0.0
2015-Jan-22 13:34N 67°17' E 014°23'12 9.2
2015-Jan-22 12:14N 67°20' E 013°52'  

Dump ship's entire track history